UTDK

Details ICAO UTDK (TJU)
Name KULYAB
Region Tajikistan, Turkmenistan and Uzbekistan
Timezone Asia/Dushanbe (UTC+5.0)
Plans Departing 4
Arriving 5
Stats Elevation 2,293 ft / 699 m (AMSL)
Location 37.988334° 69.806667°
Runways 1
Magnetic Variation 4.171° E
Sunrise 2017-12-16 02:31:30 UTC / 2017-12-16 07:31:30 Local
Sunset 2017-12-16 12:03:54 UTC / 2017-12-16 17:03:54 Local
Advertisement - Login to hide

Runways

ID Width Length Bearing (true) Bearing (mag) Surface Threshold Offset Overrun Length
01 137 ft / 42 m 10,147 ft / 3,093 m 16.46° 12.29° Asphalt 0 ft / 0 m 0 ft / 0 m
19 137 ft / 42 m 10,147 ft / 3,093 m 196.47° 192.30° Asphalt 0 ft / 0 m 0 ft / 0 m

Map

Weather


0- 5 10 15 20 25 30 35+ Temperature / ° C

Clouds and Precipitation
Forecast for 2017-12-16 12:00 UTC. Updated 33 minutes ago

Ground ~20,000 ft ~40,000 ft Winds

METAR

UTDK 160730Z 02004MPS 9999 BKN067 OVC094 06/00 Q1030 R01/09//70 RMK QFE714/0952

TAF

Not found

Frequencies

Tower 118.50 MHz TWR
Warning: Do not use this data for real-world aviation or navigation. No guarantee of current accuracy is given.